Flight Track Log - Related Links

Times and Time Zones

All times are in EDT time to prevent confusion due to time zone crossing. See the JAL1818 flight status page for this flight to view local times or setup timezone preferences in your user account.

Time Position Orientation Groundspeed Altitude Reporting Facility
EDT Latitude Longitude Course Direction KTS MPH feet Rate Location/Type
Tue 07:52:15 AM 32.8475 130.8842 67° East  Level Estimated
Tue 07:53:15 AM 32.8884 131.0011 67° East  Level Estimated
Tue 07:54:15 AM 32.9292 131.1180 67° East  Level Estimated
Tue 07:55:15 AM 32.9698 131.2350 68° East  Level Estimated
Tue 07:56:15 AM 33.0104 131.3521 68° East  Level Estimated
Tue 07:57:15 AM 33.0508 131.4694 68° East  Level Estimated
Tue 07:58:15 AM 33.0912 131.5867 68° East  Level Estimated
Tue 07:59:15 AM 33.1314 131.7042 68° East  Level Estimated
Tue 08:00:15 AM 33.1715 131.8217 68° East  Level Estimated
Tue 08:01:15 AM 33.2115 131.9394 68° East  Level Estimated
Tue 08:02:15 AM 33.2514 132.0571 68° East  Level Estimated
Tue 08:03:15 AM 33.2912 132.1750 68° East  Level Estimated
Tue 08:04:15 AM 33.3308 132.2930 68° East  Level Estimated
Tue 08:05:15 AM 33.3704 132.4111 68° East  Level Estimated
Tue 08:06:15 AM 33.4098 132.5293 68° East  Level Estimated
Tue 08:07:15 AM 33.4492 132.6476 68° East  Level Estimated
Tue 08:08:15 AM 33.4884 132.7661 68° East  Level Estimated
Tue 08:09:15 AM 33.5275 132.8846 68° East  Level Estimated
Tue 08:10:15 AM 33.5665 133.0032 69° East  Level Estimated
Tue 08:11:15 AM 33.6053 133.1220 69° East  Level Estimated
Tue 08:12:15 AM 33.6441 133.2408 69° East  Level Estimated
Tue 08:13:15 AM 33.6828 133.3598 69° East  Level Estimated
Tue 08:14:15 AM 33.7213 133.4788 69° East  Level Estimated
Tue 08:15:15 AM 33.7597 133.5980 69° East  Level Estimated
Tue 08:16:15 AM 33.7980 133.7173 69° East  Level Estimated
Tue 08:17:15 AM 33.8362 133.8367 69° East  Level Estimated
Tue 08:18:15 AM 33.8743 133.9562 69° East  Level Estimated
Tue 08:19:15 AM 33.9123 134.0758 69° East  Level Estimated
Tue 08:20:15 AM 33.9501 134.1955 69° East  Level Estimated
Tue 08:21:15 AM 33.9878 134.3153 69° East  Level Estimated
Tue 08:22:15 AM 34.0254 134.4352 69° East  Level Estimated
Tue 08:23:15 AM 34.0629 134.5552 69° East  Level Estimated
Tue 08:24:15 AM 34.1003 134.6754 69° East  Level Estimated
Tue 08:25:15 AM 34.1376 134.7956 70° East  Level Estimated
Tue 08:26:15 AM 34.1747 134.9159 70° East  Level Estimated
Tue 08:27:15 AM 34.2118 135.0364 70° East  Level Estimated
Tue 08:28:15 AM 34.2487 135.1569 70° East  Level Estimated
Tue 08:29:15 AM 34.2855 135.2776 70° East  Level Estimated
Tue 08:30:15 AM 34.3221 135.3983 70° East  Level Estimated
Tue 08:31:15 AM 34.3587 135.5192 70° East  Level Estimated
Tue 08:32:15 AM 34.3951 135.6402 70° East  Level Estimated
Tue 08:33:15 AM 34.4315 135.7613 70° East  Level Estimated
Tue 08:34:15 AM 34.4677 135.8824 70° East  Level Estimated
Tue 08:35:15 AM 34.5037 136.0037 70° East  Level Estimated
Tue 08:36:15 AM 34.5397 136.1251 70° East  Level Estimated
Tue 08:37:15 AM 34.5755 136.2466 70° East  Level Estimated
Tue 08:38:15 AM 34.6113 136.3682 70° East  Level Estimated
Tue 08:39:15 AM 34.6469 136.4899 70° East  Level Estimated
Tue 08:40:15 AM 34.6823 136.6117 71° East  Level Estimated
Tue 08:41:15 AM 34.7182 136.7353 71° East  Level Estimated
Tue 08:42:15 AM 34.7539 136.8590 71° East  Level Estimated
Tue 08:43:15 AM 34.7895 136.9828 71° East  Level Estimated
Tue 08:44:15 AM 34.8249 137.1067 71° East  Level Estimated
Tue 08:45:15 AM 34.8603 137.2307 71° East  Level Estimated
Tue 08:46:15 AM 34.8955 137.3548 71° East  Level Estimated
Tue 08:47:15 AM 34.9306 137.4790 71° East  Level Estimated
Tue 08:48:15 AM 34.9655 137.6033 71° East  Level Estimated
Tue 08:49:15 AM 35.0004 137.7278 71° East  Level Estimated
Tue 08:50:15 AM 35.0351 137.8523 71° East  Level Estimated
Tue 08:51:15 AM 35.0696 137.9770 71° East  Level Estimated
Tue 08:52:15 AM 35.1041 138.1017 71° East  Level Estimated
Tue 08:53:15 AM 35.1399 138.2319 71° East  Level Estimated
Tue 08:54:15 AM 35.1760 138.3642 72° East  Level Estimated
Tue 08:55:15 AM 35.2121 138.4965 72° East  Level Estimated
Tue 08:56:15 AM 35.2480 138.6289 72° East  Level Estimated
Tue 08:57:15 AM 35.2837 138.7615 72° East  Level Estimated
Tue 08:58:15 AM 35.3183 138.8905 72° East  Level Estimated
Tue 08:59:15 AM 35.3532 139.0214 72° East  Level Estimated
Tue 09:00:15 AM 35.3880 139.1524 72° East  Level Estimated
Tue 09:01:15 AM 35.4227 139.2835 72° East  Level Estimated
Tue 09:02:15 AM 35.4572 139.4147 72° East  Level Estimated
Tue 09:03:15 AM 35.4916 139.5461 72° East  Level Estimated
Tue 09:04:15 AM 35.5258 139.6776 72° East  Level Estimated
Tue 09:05:15 AM 35.5599 139.8091 252° West  Level Estimated
Tue 09:06:15 AM 35.5258 139.6776 72° East  Level Estimated
Tue 09:07:15 AM 35.5599 139.8091 72° East  Level Estimated

Login

Don't have an account? Register now (free) for customized features, flight alerts, and more!